Terminal Aerodrome Forecast
Issued by NWS Wilmington, NC

Home | Current Version | Previous Version | Text Only | Print | Product List | Glossary On
Versions: 1 2 3 4 5 6 7 8 9 10 11 12 13 14 15 16
873
FTUS42 KILM 172334
TAFLBT
TAF
KLBT 172334Z 1800/1824 34010KT 6SM -SN BR BKN006 OVC015
     FM180100 34012KT 6SM -SN SCT008 OVC012
      TEMPO 1801/1804 2SM -SN
     FM180400 34014G20KT P6SM SCT015 BKN050
     FM180600 34015G25KT P6SM SCT050
     FM180800 33010KT P6SM SKC=

USA.gov is the U.S. government's official web portal to all federal, state and local government web resources and services.